createdAt,value
2019-02-27T00:01:20.980Z,60.98
2019-02-27T00:03:50.689Z,61.23
2019-02-27T00:06:20.376Z,61.43
2019-02-27T00:13:17.839Z,61.31
2019-02-27T00:15:47.480Z,61.52
2019-02-27T00:18:17.106Z,60.80
2019-02-27T00:20:46.810Z,61.34
2019-02-27T00:23:16.430Z,61.25
2019-02-27T00:25:46.069Z,61.00
2019-02-27T00:28:15.689Z,60.38
2019-02-27T00:30:45.327Z,60.98
2019-02-27T00:33:14.946Z,60.77
2019-02-27T00:35:44.566Z,61.18
2019-02-27T00:38:14.203Z,61.70
2019-02-27T00:40:43.819Z,61.68
2019-02-27T00:43:13.463Z,61.52
2019-02-27T00:45:43.074Z,61.64
2019-02-27T00:48:12.724Z,61.66
2019-02-27T00:50:42.412Z,61.71
2019-02-27T00:53:12.047Z,60.91
2019-02-27T00:55:41.667Z,61.74
2019-02-27T00:58:11.311Z,61.82
2019-02-27T01:00:40.941Z,61.77
2019-02-27T01:03:10.645Z,61.77
2019-02-27T01:05:41.199Z,61.85
2019-02-27T01:08:11.356Z,61.90
2019-02-27T01:10:42.844Z,61.99
2019-02-27T01:13:12.675Z,62.12
2019-02-27T01:15:44.694Z,62.27
2019-02-27T01:18:13.670Z,62.23
2019-02-27T01:20:46.400Z,62.15
2019-02-27T01:23:14.644Z,62.22
2019-02-27T01:25:44.268Z,62.70
2019-02-27T01:28:13.913Z,62.63
2019-02-27T01:30:43.524Z,62.53
2019-02-27T01:33:13.228Z,62.51
2019-02-27T01:35:42.846Z,62.52
2019-02-27T01:38:12.483Z,62.81
2019-02-27T01:40:42.173Z,62.98
2019-02-27T01:43:11.815Z,62.85
2019-02-27T01:45:41.427Z,62.54
2019-02-27T01:48:11.148Z,62.26
2019-02-27T01:50:40.767Z,62.43
2019-02-27T01:53:10.651Z,63.04
2019-02-27T01:55:40.341Z,62.89
2019-02-27T01:58:10.264Z,62.72
2019-02-27T02:00:40.307Z,62.33
2019-02-27T02:03:11.156Z,62.21
2019-02-27T02:05:41.495Z,62.20
2019-02-27T02:08:13.955Z,61.70
2019-02-27T02:10:42.623Z,62.31
2019-02-27T02:13:17.174Z,62.22
2019-02-27T02:16:09.640Z,62.18
2019-02-27T02:18:55.661Z,62.20
2019-02-27T02:21:44.800Z,62.54
2019-02-27T02:24:38.434Z,62.53
2019-02-27T02:27:42.937Z,62.61
2019-02-27T02:30:45.554Z,62.54
2019-02-27T02:33:43.008Z,62.81
2019-02-27T02:37:01.220Z,62.40
2019-02-27T02:39:57.838Z,62.56
2019-02-27T02:42:43.985Z,62.58
2019-02-27T02:45:35.606Z,62.84
2019-02-27T02:48:46.369Z,62.93
2019-02-27T02:51:45.643Z,63.27
2019-02-27T02:54:36.290Z,63.32
2019-02-27T02:57:28.263Z,63.41
2019-02-27T03:00:17.238Z,63.34
2019-02-27T03:03:00.999Z,63.45
2019-02-27T03:06:06.697Z,63.52
2019-02-27T03:09:17.545Z,63.22
2019-02-27T03:12:11.019Z,63.98
2019-02-27T03:15:03.134Z,64.09
2019-02-27T03:17:53.737Z,64.12
2019-02-27T03:20:40.020Z,63.95
2019-02-27T03:23:34.837Z,64.21
2019-02-27T03:26:57.103Z,64.18
2019-02-27T03:29:37.109Z,63.50
2019-02-27T03:32:23.361Z,63.47
2019-02-27T03:34:57.574Z,63.20
2019-02-27T03:37:40.507Z,63.68
2019-02-27T03:40:45.043Z,64.29
2019-02-27T03:43:45.924Z,63.56
2019-02-27T03:46:40.756Z,63.21
2019-02-27T03:49:39.748Z,63.29
2019-02-27T03:52:27.041Z,63.41
2019-02-27T03:55:32.839Z,63.90
2019-02-27T03:58:30.669Z,63.98
2019-02-27T04:01:32.888Z,64.04
2019-02-27T04:04:29.602Z,64.00
2019-02-27T04:07:20.496Z,64.01
2019-02-27T04:09:54.878Z,63.49
2019-02-27T04:12:21.472Z,64.55
2019-02-27T04:14:51.126Z,64.61
2019-02-27T04:17:29.248Z,64.70
2019-02-27T04:19:59.433Z,64.73
2019-02-27T04:22:29.051Z,64.49
2019-02-27T04:24:58.694Z,63.78
2019-02-27T04:27:28.320Z,64.12
2019-02-27T04:29:57.954Z,64.10
2019-02-27T04:32:27.574Z,63.62
2019-02-27T04:34:57.218Z,63.32
2019-02-27T04:37:26.850Z,63.34
2019-02-27T04:39:56.477Z,63.52
2019-02-27T04:42:26.524Z,63.59
2019-02-27T04:44:56.206Z,63.77
2019-02-27T04:47:28.869Z,63.89
2019-02-27T04:49:57.190Z,63.72
2019-02-27T04:52:26.804Z,64.16
2019-02-27T04:54:56.443Z,64.37
2019-02-27T04:57:26.061Z,64.16
2019-02-27T04:59:55.701Z,63.90
2019-02-27T05:02:25.391Z,63.95
2019-02-27T05:04:55.058Z,64.68
2019-02-27T05:07:24.674Z,64.92
2019-02-27T05:09:54.313Z,65.14
2019-02-27T05:12:23.928Z,64.75
2019-02-27T05:14:53.565Z,64.87
2019-02-27T05:17:23.179Z,64.59
2019-02-27T05:19:52.799Z,64.51
2019-02-27T05:22:26.443Z,64.87
2019-02-27T05:24:53.780Z,64.81
2019-02-27T05:27:23.422Z,64.92
2019-02-27T05:29:53.041Z,64.92
2019-02-27T05:32:27.885Z,64.58
2019-02-27T05:34:54.023Z,65.11
2019-02-27T05:37:23.691Z,65.06
2019-02-27T05:39:53.310Z,65.14
2019-02-27T05:42:22.953Z,65.06
2019-02-27T05:44:55.520Z,64.97
2019-02-27T05:47:23.937Z,65.02
2019-02-27T05:49:53.547Z,65.07
2019-02-27T05:52:23.179Z,64.93
2019-02-27T05:54:52.797Z,64.59
2019-02-27T05:57:23.325Z,65.06
2019-02-27T05:59:53.546Z,64.93
2019-02-27T06:02:23.187Z,64.85
2019-02-27T06:04:52.797Z,64.69
2019-02-27T06:07:22.439Z,64.33
2019-02-27T06:09:52.118Z,64.01
2019-02-27T06:12:21.804Z,64.10
2019-02-27T06:14:54.818Z,65.02
2019-02-27T06:17:22.844Z,64.26
2019-02-27T06:19:52.475Z,64.79
2019-02-27T06:22:22.123Z,65.12
2019-02-27T06:24:51.743Z,64.89
2019-02-27T06:27:21.379Z,64.72
2019-02-27T06:29:51.002Z,64.90
2019-02-27T06:32:20.643Z,65.58
2019-02-27T06:34:50.258Z,65.55
2019-02-27T06:37:19.899Z,65.70
2019-02-27T06:39:49.519Z,64.98
2019-02-27T06:42:19.233Z,64.66
2019-02-27T06:44:48.952Z,64.22
2019-02-27T06:47:21.044Z,64.57
2019-02-27T06:49:52.019Z,64.21
2019-02-27T06:52:22.197Z,65.12
2019-02-27T06:54:52.297Z,65.51
2019-02-27T06:57:22.539Z,65.38
2019-02-27T06:59:52.159Z,65.27
2019-02-27T07:02:22.310Z,65.22
2019-02-27T07:04:52.109Z,65.00
2019-02-27T07:07:21.743Z,64.99
2019-02-27T07:09:51.399Z,64.80
2019-02-27T07:12:21.829Z,64.67
2019-02-27T07:14:52.085Z,64.67
2019-02-27T07:17:21.714Z,64.66
2019-02-27T07:19:51.332Z,64.56
2019-02-27T07:22:20.988Z,64.63
2019-02-27T07:24:50.612Z,64.72
2019-02-27T07:27:20.270Z,64.60
2019-02-27T07:29:49.891Z,64.49
2019-02-27T07:32:19.512Z,64.47
2019-02-27T07:34:49.750Z,64.37
2019-02-27T07:37:20.059Z,64.31
2019-02-27T07:39:49.707Z,64.35
2019-02-27T07:42:19.327Z,64.50
2019-02-27T07:44:48.963Z,64.35
2019-02-27T07:47:18.575Z,64.20
2019-02-27T07:49:48.330Z,64.11
2019-02-27T07:52:18.008Z,64.23
2019-02-27T07:54:47.655Z,64.24
2019-02-27T07:57:17.271Z,64.15
2019-02-27T07:59:46.888Z,64.15
2019-02-27T08:02:16.592Z,64.02
2019-02-27T08:04:46.210Z,64.00
2019-02-27T08:07:15.848Z,64.83
2019-02-27T08:09:45.471Z,64.20
2019-02-27T08:12:17.551Z,63.92
2019-02-27T08:14:47.603Z,63.85
2019-02-27T08:17:18.031Z,63.86
2019-02-27T08:19:47.775Z,63.94
2019-02-27T08:22:17.427Z,63.98
2019-02-27T08:24:47.055Z,63.98
2019-02-27T08:27:16.662Z,63.80
2019-02-27T08:29:46.304Z,63.99
2019-02-27T08:32:15.913Z,63.62
2019-02-27T08:34:45.561Z,63.60
2019-02-27T08:37:15.175Z,63.68
2019-02-27T08:39:44.823Z,63.42
2019-02-27T08:42:15.758Z,63.65
2019-02-27T08:44:46.612Z,63.15
2019-02-27T08:47:16.302Z,63.26
2019-02-27T08:49:46.262Z,63.12
2019-02-27T08:52:16.355Z,62.80
2019-02-27T08:54:46.172Z,63.64
2019-02-27T08:57:15.823Z,62.86
2019-02-27T08:59:45.443Z,62.63
2019-02-27T09:02:15.697Z,62.63
2019-02-27T09:04:45.421Z,62.64
2019-02-27T09:07:15.835Z,63.71
2019-02-27T09:09:45.453Z,62.96
2019-02-27T09:12:15.098Z,63.08
2019-02-27T09:14:44.711Z,62.95
2019-02-27T09:17:14.351Z,62.51
2019-02-27T09:19:45.555Z,62.28
2019-02-27T09:22:15.357Z,62.31
2019-02-27T09:24:44.968Z,61.89
2019-02-27T09:27:14.612Z,62.17
2019-02-27T09:29:44.225Z,62.76
2019-02-27T09:32:13.864Z,62.81
2019-02-27T09:34:43.790Z,61.97
2019-02-27T09:37:13.863Z,62.71
2019-02-27T09:39:43.641Z,62.17
2019-02-27T09:42:13.327Z,62.63
2019-02-27T09:44:42.969Z,61.94
2019-02-27T09:47:12.596Z,61.84
2019-02-27T09:49:42.243Z,62.36
2019-02-27T09:52:11.862Z,61.96
2019-02-27T09:54:41.509Z,61.70
2019-02-27T09:57:11.121Z,61.83
2019-02-27T09:59:40.766Z,61.16
2019-02-27T10:02:12.452Z,61.47
2019-02-27T10:04:41.750Z,61.36
2019-02-27T10:07:11.446Z,61.01
2019-02-27T10:09:41.099Z,60.75
2019-02-27T10:12:10.759Z,60.64
2019-02-27T10:14:40.379Z,60.55
2019-02-27T10:17:10.055Z,60.42
2019-02-27T10:19:39.652Z,60.36
2019-02-27T10:22:09.294Z,59.75
2019-02-27T10:24:38.919Z,59.40
2019-02-27T10:27:08.566Z,58.19
2019-02-27T10:29:38.185Z,56.56
2019-02-27T10:32:07.832Z,55.08
2019-02-27T10:34:37.518Z,55.19
2019-02-27T10:37:07.271Z,55.38
2019-02-27T10:39:37.633Z,54.17
2019-02-27T10:42:07.334Z,54.33
2019-02-27T10:44:36.965Z,52.82
2019-02-27T10:47:06.584Z,53.30
2019-02-27T10:49:38.196Z,53.39
2019-02-27T10:52:07.577Z,52.84
2019-02-27T10:54:39.433Z,51.45
2019-02-27T10:57:08.568Z,51.75
2019-02-27T10:59:38.206Z,51.55
2019-02-27T11:02:09.709Z,50.00
2019-02-27T11:04:39.596Z,50.91
2019-02-27T11:07:09.450Z,49.11
2019-02-27T11:09:41.276Z,48.48
2019-02-27T11:12:10.509Z,48.24
2019-02-27T11:14:40.174Z,49.00
2019-02-27T11:17:09.815Z,43.70
2019-02-27T11:19:39.441Z,45.28
2019-02-27T11:22:09.178Z,45.46
2019-02-27T11:24:38.890Z,45.07
2019-02-27T11:27:08.541Z,45.25
2019-02-27T11:29:38.167Z,45.88
2019-02-27T11:32:08.093Z,44.55
2019-02-27T11:34:37.723Z,44.10
2019-02-27T11:37:12.998Z,43.77
2019-02-27T11:39:38.806Z,44.22
2019-02-27T11:42:08.465Z,40.43
2019-02-27T11:44:38.254Z,38.39
2019-02-27T11:47:10.979Z,38.01
2019-02-27T11:49:39.406Z,37.51
2019-02-27T11:52:09.120Z,36.48
2019-02-27T11:54:42.897Z,36.56
2019-02-27T11:57:10.112Z,36.85
2019-02-27T11:59:39.762Z,36.06
2019-02-27T12:02:10.064Z,37.27
2019-02-27T12:04:39.710Z,35.45
2019-02-27T12:07:09.342Z,37.09
2019-02-27T12:09:38.993Z,35.90
2019-02-27T12:12:10.401Z,35.60
2019-02-27T12:14:40.174Z,37.42
2019-02-27T12:17:09.803Z,35.61
2019-02-27T12:19:42.080Z,37.05
2019-02-27T12:22:10.806Z,35.69
2019-02-27T12:24:40.433Z,33.10
2019-02-27T12:27:10.401Z,32.07
2019-02-27T12:29:41.448Z,30.17
2019-02-27T12:32:11.105Z,30.88
2019-02-27T12:34:40.731Z,31.82
2019-02-27T12:37:23.745Z,29.09
2019-02-27T12:39:43.491Z,30.13
2019-02-27T12:42:13.337Z,30.80
2019-02-27T12:44:42.962Z,30.15
2019-02-27T12:47:12.586Z,29.50
2019-02-27T12:49:42.239Z,28.31
2019-02-27T12:52:12.187Z,30.65
2019-02-27T12:54:41.894Z,30.08
2019-02-27T12:57:11.598Z,32.30
2019-02-27T12:59:41.250Z,32.14
2019-02-27T13:02:10.992Z,31.36
2019-02-27T13:04:40.603Z,31.15
2019-02-27T13:07:10.722Z,30.73
2019-02-27T13:09:41.045Z,30.80
2019-02-27T13:12:10.673Z,28.62
2019-02-27T13:14:40.299Z,29.91
2019-02-27T13:17:09.949Z,29.76
2019-02-27T13:19:39.653Z,30.68
2019-02-27T13:22:09.306Z,30.50
2019-02-27T13:24:38.930Z,30.57
2019-02-27T13:27:09.246Z,29.72
2019-02-27T13:29:39.591Z,28.64
2019-02-27T13:32:09.315Z,28.16
2019-02-27T13:34:38.945Z,30.09
2019-02-27T13:37:10.128Z,28.33
2019-02-27T13:39:40.066Z,27.56
2019-02-27T13:42:10.065Z,26.40
2019-02-27T13:44:39.790Z,26.44
2019-02-27T13:47:09.411Z,25.19
2019-02-27T13:49:39.072Z,24.17
2019-02-27T13:52:12.192Z,24.71
2019-02-27T13:54:40.073Z,25.00
2019-02-27T13:57:09.699Z,26.58
2019-02-27T13:59:39.352Z,24.82
2019-02-27T14:02:11.347Z,23.85
2019-02-27T14:04:40.497Z,24.22
2019-02-27T14:07:10.197Z,23.95
2019-02-27T14:09:41.536Z,24.63
2019-02-27T14:12:11.201Z,22.39
2019-02-27T14:14:40.924Z,22.47
2019-02-27T14:17:11.405Z,22.76
2019-02-27T14:19:41.192Z,22.80
2019-02-27T14:22:10.817Z,21.83
2019-02-27T14:24:40.479Z,20.43
2019-02-27T14:27:12.013Z,19.93
2019-02-27T14:29:41.459Z,19.94
2019-02-27T14:32:11.180Z,18.48
2019-02-27T14:34:40.809Z,17.33
2019-02-27T14:37:10.460Z,17.32
2019-02-27T14:39:40.082Z,18.00
2019-02-27T14:42:09.736Z,18.15
2019-02-27T14:44:39.434Z,17.94
2019-02-27T14:47:09.085Z,17.82
2019-02-27T14:49:38.712Z,18.78
2019-02-27T14:52:08.365Z,17.62
2019-02-27T14:54:37.991Z,18.94
2019-02-27T14:57:07.638Z,18.29
2019-02-27T14:59:37.264Z,18.87
2019-02-27T15:02:07.072Z,18.22
2019-02-27T15:04:36.704Z,19.76
2019-02-27T15:07:06.397Z,19.26
2019-02-27T15:09:36.544Z,19.93
2019-02-27T15:12:06.963Z,19.44
2019-02-27T15:14:36.634Z,19.69
2019-02-27T15:17:06.264Z,19.86
2019-02-27T15:19:35.914Z,19.37
2019-02-27T15:22:06.218Z,21.22
2019-02-27T15:24:35.934Z,20.24
2019-02-27T15:27:05.565Z,18.92
2019-02-27T15:29:36.920Z,20.89
2019-02-27T15:32:06.787Z,20.77
2019-02-27T15:34:36.436Z,19.61
2019-02-27T15:37:06.059Z,19.43
2019-02-27T15:39:35.727Z,22.32
2019-02-27T15:42:08.608Z,21.00
2019-02-27T15:44:37.008Z,20.60
2019-02-27T15:47:07.310Z,20.21
2019-02-27T15:49:36.995Z,20.71
2019-02-27T15:52:07.686Z,21.49
2019-02-27T15:54:37.451Z,23.03
2019-02-27T15:57:07.104Z,23.91
2019-02-27T15:59:40.567Z,25.15
2019-02-27T16:02:08.363Z,26.52
2019-02-27T16:04:37.987Z,26.44
2019-02-27T16:07:07.625Z,27.21
2019-02-27T16:09:37.256Z,28.53
2019-02-27T16:12:07.141Z,29.05
2019-02-27T16:14:36.768Z,30.22
2019-02-27T16:17:06.427Z,31.46
2019-02-27T16:19:36.052Z,32.38
2019-02-27T16:22:05.670Z,33.04
2019-02-27T16:24:35.319Z,33.77
2019-02-27T16:27:05.015Z,34.00
2019-02-27T16:29:34.669Z,34.23
2019-02-27T16:32:04.292Z,34.97
2019-02-27T16:34:34.229Z,35.17
2019-02-27T16:37:04.047Z,35.39
2019-02-27T16:39:33.764Z,35.64
2019-02-27T16:42:05.105Z,35.92
2019-02-27T16:44:34.768Z,36.58
2019-02-27T16:47:04.397Z,37.64
2019-02-27T16:49:34.049Z,38.16
2019-02-27T16:52:07.877Z,38.07
2019-02-27T16:54:35.068Z,38.80
2019-02-27T16:57:04.698Z,38.98
2019-02-27T16:59:34.323Z,39.03
2019-02-27T17:02:04.704Z,39.23
2019-02-27T17:04:34.906Z,40.04
2019-02-27T17:07:04.679Z,40.62
2019-02-27T17:09:34.304Z,40.47
2019-02-27T17:12:06.919Z,41.11
2019-02-27T17:14:35.302Z,41.32
2019-02-27T17:17:04.956Z,41.46
2019-02-27T17:19:36.662Z,41.09
2019-02-27T17:22:05.958Z,41.46
2019-02-27T17:24:35.581Z,41.52
2019-02-27T17:27:05.298Z,42.28
2019-02-27T17:29:34.930Z,42.21
2019-02-27T17:32:04.704Z,42.54
2019-02-27T17:34:35.474Z,42.00
2019-02-27T17:37:06.336Z,42.18
2019-02-27T17:39:36.530Z,42.87
2019-02-27T17:42:06.230Z,42.83
2019-02-27T17:44:37.889Z,42.45
2019-02-27T17:47:08.242Z,42.99
2019-02-27T17:49:38.075Z,41.92
2019-02-27T17:52:11.377Z,42.49
2019-02-27T17:54:39.873Z,43.42
2019-02-27T17:57:09.510Z,42.58
2019-02-27T17:59:42.386Z,42.48
2019-02-27T18:02:10.585Z,43.78
2019-02-27T18:04:40.239Z,44.19
2019-02-27T18:07:09.975Z,43.61
2019-02-27T18:09:40.445Z,43.02
2019-02-27T18:12:10.144Z,42.88
2019-02-27T18:14:43.898Z,43.59
2019-02-27T18:17:11.161Z,44.48
2019-02-27T18:19:40.876Z,43.92
2019-02-27T18:22:14.026Z,44.45
2019-02-27T18:24:41.990Z,43.96
2019-02-27T18:27:11.646Z,44.36
2019-02-27T18:29:43.658Z,45.16
2019-02-27T18:32:12.712Z,43.76
2019-02-27T18:34:42.559Z,44.76
2019-02-27T18:37:12.341Z,44.22
2019-02-27T18:39:41.974Z,44.94
2019-02-27T18:42:11.627Z,45.03
2019-02-27T18:44:41.740Z,44.24
2019-02-27T18:47:11.478Z,44.98
2019-02-27T18:49:42.420Z,45.35
2019-02-27T18:52:21.046Z,45.27
2019-02-27T18:54:43.599Z,44.92
2019-02-27T18:57:13.323Z,45.19
2019-02-27T18:59:42.991Z,45.66
2019-02-27T19:02:12.752Z,45.70
2019-02-27T19:04:42.413Z,46.08
2019-02-27T19:07:13.976Z,46.17
2019-02-27T19:09:43.688Z,45.89
2019-02-27T19:12:13.444Z,46.32
2019-02-27T19:14:43.153Z,46.03
2019-02-27T19:17:12.914Z,46.29
2019-02-27T19:19:42.630Z,45.70
2019-02-27T19:22:12.594Z,45.54
2019-02-27T19:24:42.364Z,46.12
2019-02-27T19:27:12.318Z,46.37
2019-02-27T19:29:42.071Z,46.47
2019-02-27T19:32:11.832Z,46.48
2019-02-27T19:34:44.703Z,46.76
2019-02-27T19:37:12.967Z,46.91
2019-02-27T19:39:42.652Z,47.00
2019-02-27T19:42:13.231Z,46.85
2019-02-27T19:44:43.458Z,46.67
2019-02-27T19:47:13.107Z,47.00
2019-02-27T19:49:42.795Z,47.28
2019-02-27T19:52:12.543Z,47.49
2019-02-27T19:54:42.230Z,47.64
2019-02-27T19:57:12.001Z,47.49
2019-02-27T19:59:41.745Z,47.85
2019-02-27T20:02:11.496Z,47.73
2019-02-27T20:04:43.651Z,48.22
2019-02-27T20:07:12.738Z,48.29
2019-02-27T20:09:42.390Z,48.56
2019-02-27T20:12:12.695Z,48.54
2019-02-27T20:14:43.581Z,48.92
2019-02-27T20:17:13.269Z,48.45
2019-02-27T20:19:42.910Z,49.14
2019-02-27T20:22:15.489Z,49.31
2019-02-27T20:24:44.047Z,49.06
2019-02-27T20:27:13.732Z,48.66
2019-02-27T20:29:43.350Z,49.03
2019-02-27T20:32:12.991Z,48.95
2019-02-27T20:34:45.935Z,49.53
2019-02-27T20:37:14.119Z,49.49
2019-02-27T20:39:43.732Z,49.99
2019-02-27T20:42:14.383Z,49.87
2019-02-27T20:44:44.152Z,49.66
2019-02-27T20:47:13.806Z,50.06
2019-02-27T20:49:44.655Z,49.82
2019-02-27T20:52:15.667Z,50.58
2019-02-27T20:54:45.403Z,50.26
2019-02-27T20:57:15.091Z,50.58
2019-02-27T20:59:44.735Z,50.73
2019-02-27T21:02:14.418Z,50.48
2019-02-27T21:04:44.136Z,50.34
2019-02-27T21:07:22.018Z,50.42
2019-02-27T21:09:45.901Z,50.52
2019-02-27T21:12:15.692Z,50.57
2019-02-27T21:14:45.337Z,50.01
2019-02-27T21:17:16.504Z,50.32
2019-02-27T21:19:46.387Z,50.38
2019-02-27T21:22:16.012Z,49.92
2019-02-27T21:24:45.655Z,50.82
2019-02-27T21:27:15.303Z,51.25
2019-02-27T21:29:45.028Z,51.00
2019-02-27T21:32:14.643Z,51.34
2019-02-27T21:34:44.340Z,51.09
2019-02-27T21:37:16.166Z,51.84
2019-02-27T21:39:45.325Z,51.54
2019-02-27T21:42:18.364Z,51.47
2019-02-27T21:44:46.457Z,51.10
2019-02-27T21:47:18.364Z,51.34
2019-02-27T21:49:47.510Z,51.47
2019-02-27T21:52:21.398Z,52.32
2019-02-27T21:54:48.495Z,52.45
2019-02-27T21:57:18.207Z,52.28
2019-02-27T21:59:47.823Z,52.17
2019-02-27T22:02:17.492Z,52.14
2019-02-27T22:04:47.095Z,51.95
2019-02-27T22:07:16.731Z,51.99
2019-02-27T22:09:46.346Z,51.56
2019-02-27T22:12:15.996Z,51.90
2019-02-27T22:14:48.599Z,52.29
2019-02-27T22:17:16.972Z,52.18
2019-02-27T22:19:46.660Z,52.52
2019-02-27T22:22:16.274Z,52.76
2019-02-27T22:24:45.915Z,52.44
2019-02-27T22:27:15.528Z,51.93
2019-02-27T22:29:45.171Z,51.96
2019-02-27T22:32:15.379Z,53.02
2019-02-27T22:34:45.110Z,52.27
2019-02-27T22:37:17.539Z,52.08
2019-02-27T22:39:46.099Z,52.12
2019-02-27T22:42:15.721Z,52.03
2019-02-27T22:44:45.362Z,52.34
2019-02-27T22:47:14.975Z,52.08
2019-02-27T22:49:44.634Z,52.51
2019-02-27T22:52:14.249Z,52.34
2019-02-27T22:54:43.931Z,52.29
2019-02-27T22:57:13.573Z,52.76
2019-02-27T22:59:43.256Z,52.90
2019-02-27T23:02:13.180Z,52.77
2019-02-27T23:04:42.795Z,53.35
2019-02-27T23:07:12.677Z,53.31
2019-02-27T23:09:42.367Z,53.91
2019-02-27T23:12:12.747Z,54.03
2019-02-27T23:14:42.533Z,53.62
2019-02-27T23:17:12.177Z,54.09
2019-02-27T23:19:46.060Z,53.70
2019-02-27T23:22:13.438Z,53.99
2019-02-27T23:24:43.877Z,53.53
2019-02-27T23:27:14.372Z,53.50
2019-02-27T23:29:43.985Z,53.28
2019-02-27T23:32:13.675Z,53.17
2019-02-27T23:34:43.321Z,53.04
2019-02-27T23:37:12.938Z,53.24
2019-02-27T23:39:43.604Z,53.23
2019-02-27T23:42:13.461Z,53.25
2019-02-27T23:44:43.123Z,53.42
2019-02-27T23:47:12.741Z,53.55
2019-02-27T23:49:42.381Z,53.70
2019-02-27T23:52:11.997Z,53.83
2019-02-27T23:54:41.718Z,53.19
2019-02-27T23:57:11.337Z,52.67
2019-02-27T23:59:41.051Z,52.92
